sensor_id;sensor_type;location;lat;lon;timestamp;pressure;altitude;pressure_sealevel;temperature;humidity
65666;BME280;52365;47.464;18.976;2022-12-17T00:00:42;99181.56;;;4.85;74.66
65666;BME280;52365;47.464;18.976;2022-12-17T00:01:36;99174.19;;;5.01;73.35
65666;BME280;52365;47.464;18.976;2022-12-17T00:02:31;99180.09;;;4.96;73.04
65666;BME280;52365;47.464;18.976;2022-12-17T00:03:26;99176.63;;;4.96;72.72
65666;BME280;52365;47.464;18.976;2022-12-17T00:04:20;99182.41;;;5.07;72.27
65666;BME280;52365;47.464;18.976;2022-12-17T00:05:15;99179.44;;;5.05;71.99
65666;BME280;52365;47.464;18.976;2022-12-17T00:06:09;99183.56;;;5.32;71.55
65666;BME280;52365;47.464;18.976;2022-12-17T00:07:04;99191.69;;;5.28;70.88
65666;BME280;52365;47.464;18.976;2022-12-17T00:07:59;99184.84;;;4.38;73.58
65666;BME280;52365;47.464;18.976;2022-12-17T00:08:53;99194.81;;;4.75;74.08
65666;BME280;52365;47.464;18.976;2022-12-17T00:09:48;99188.41;;;4.86;73.42
65666;BME280;52365;47.464;18.976;2022-12-17T00:10:43;99183.69;;;4.64;73.77
65666;BME280;52365;47.464;18.976;2022-12-17T00:11:38;99171.97;;;4.49;74.07
65666;BME280;52365;47.464;18.976;2022-12-17T00:12:32;99177.19;;;4.78;73.39
65666;BME280;52365;47.464;18.976;2022-12-17T00:13:27;99186.56;;;5.08;72.21
65666;BME280;52365;47.464;18.976;2022-12-17T00:14:21;99176.97;;;4.98;71.89
65666;BME280;52365;47.464;18.976;2022-12-17T00:15:16;99173.56;;;4.97;71.60
65666;BME280;52365;47.464;18.976;2022-12-17T00:16:10;99177.81;;;4.95;71.52
65666;BME280;52365;47.464;18.976;2022-12-17T00:17:05;99173.56;;;4.97;71.32
65666;BME280;52365;47.464;18.976;2022-12-17T00:18:04;99167.47;;;4.97;71.13
65666;BME280;52365;47.464;18.976;2022-12-17T00:18:59;99171.72;;;5.07;71.08
65666;BME280;52365;47.464;18.976;2022-12-17T00:19:53;99170.25;;;4.68;71.65
65666;BME280;52365;47.464;18.976;2022-12-17T00:20:56;99168.34;;;4.01;73.03
65666;BME280;52365;47.464;18.976;2022-12-17T00:21:51;99166.59;;;4.23;74.75
65666;BME280;52365;47.464;18.976;2022-12-17T00:22:45;99174.50;;;4.65;73.74
65666;BME280;52365;47.464;18.976;2022-12-17T00:23:41;99168.22;;;4.72;73.25
65666;BME280;52365;47.464;18.976;2022-12-17T00:24:35;99173.34;;;4.41;73.38
65666;BME280;52365;47.464;18.976;2022-12-17T00:25:29;99172.59;;;4.40;74.23
65666;BME280;52365;47.464;18.976;2022-12-17T00:26:24;99166.72;;;4.58;74.01
65666;BME280;52365;47.464;18.976;2022-12-17T00:27:23;99166.41;;;4.31;73.80
65666;BME280;52365;47.464;18.976;2022-12-17T00:28:18;99173.13;;;4.35;73.78
65666;BME280;52365;47.464;18.976;2022-12-17T00:29:13;99164.19;;;4.00;75.82
65666;BME280;52365;47.464;18.976;2022-12-17T00:30:07;99159.81;;;4.48;75.22
65666;BME280;52365;47.464;18.976;2022-12-17T00:31:02;99162.78;;;4.88;73.88
65666;BME280;52365;47.464;18.976;2022-12-17T00:31:57;99157.13;;;4.61;73.48
65666;BME280;52365;47.464;18.976;2022-12-17T00:32:52;99159.31;;;3.53;75.01
65666;BME280;52365;47.464;18.976;2022-12-17T00:33:46;99151.72;;;2.90;78.43
65666;BME280;52365;47.464;18.976;2022-12-17T00:34:41;99149.56;;;3.01;80.24
65666;BME280;52365;47.464;18.976;2022-12-17T00:35:36;99160.44;;;3.97;79.03
65666;BME280;52365;47.464;18.976;2022-12-17T00:36:30;99154.56;;;4.57;76.62
65666;BME280;52365;47.464;18.976;2022-12-17T00:37:25;99149.50;;;4.21;75.09
65666;BME280;52365;47.464;18.976;2022-12-17T00:38:19;99140.69;;;3.95;76.97
65666;BME280;52365;47.464;18.976;2022-12-17T00:39:14;99144.62;;;4.32;75.94
65666;BME280;52365;47.464;18.976;2022-12-17T00:40:09;99148.69;;;4.37;75.04
65666;BME280;52365;47.464;18.976;2022-12-17T00:41:03;99145.81;;;4.31;74.86
65666;BME280;52365;47.464;18.976;2022-12-17T00:41:58;99136.91;;;4.09;75.64
65666;BME280;52365;47.464;18.976;2022-12-17T00:43:54;99141.47;;;3.95;76.95
65666;BME280;52365;47.464;18.976;2022-12-17T00:44:49;99143.31;;;4.11;75.97
65666;BME280;52365;47.464;18.976;2022-12-17T00:45:44;99145.47;;;4.29;75.47
65666;BME280;52365;47.464;18.976;2022-12-17T00:46:39;99144.59;;;4.19;75.66
65666;BME280;52365;47.464;18.976;2022-12-17T00:47:34;99144.50;;;3.81;76.62
65666;BME280;52365;47.464;18.976;2022-12-17T00:48:28;99151.91;;;4.02;77.18
65666;BME280;52365;47.464;18.976;2022-12-17T00:49:23;99152.88;;;3.96;76.99
65666;BME280;52365;47.464;18.976;2022-12-17T00:50:18;99163.63;;;4.47;76.13
65666;BME280;52365;47.464;18.976;2022-12-17T00:51:12;99168.88;;;4.89;74.55
65666;BME280;52365;47.464;18.976;2022-12-17T00:52:07;99165.63;;;4.30;74.31
65666;BME280;52365;47.464;18.976;2022-12-17T00:53:01;99165.13;;;4.48;74.54
65666;BME280;52365;47.464;18.976;2022-12-17T00:53:56;99172.25;;;4.38;74.54
65666;BME280;52365;47.464;18.976;2022-12-17T00:54:51;99167.91;;;4.57;73.98
65666;BME280;52365;47.464;18.976;2022-12-17T00:55:45;99173.88;;;4.48;74.56
65666;BME280;52365;47.464;18.976;2022-12-17T00:56:40;99174.38;;;3.89;74.99
65666;BME280;52365;47.464;18.976;2022-12-17T00:57:34;99179.66;;;3.76;76.61
65666;BME280;52365;47.464;18.976;2022-12-17T00:58:29;99173.41;;;4.24;76.11
65666;BME280;52365;47.464;18.976;2022-12-17T00:59:23;99185.13;;;4.14;75.56
65666;BME280;52365;47.464;18.976;2022-12-17T01:00:18;99187.22;;;3.77;76.62
65666;BME280;52365;47.464;18.976;2022-12-17T01:01:13;99196.44;;;4.18;76.66
65666;BME280;52365;47.464;18.976;2022-12-17T01:02:08;99205.78;;;4.52;75.23
65666;BME280;52365;47.464;18.976;2022-12-17T01:03:08;99210.81;;;4.50;75.28
65666;BME280;52365;47.464;18.976;2022-12-17T01:04:04;99214.00;;;4.45;75.55
65666;BME280;52365;47.464;18.976;2022-12-17T01:04:58;99230.25;;;4.21;75.71
65666;BME280;52365;47.464;18.976;2022-12-17T01:06:07;99233.22;;;4.40;75.28
65666;BME280;52365;47.464;18.976;2022-12-17T01:07:02;99239.44;;;4.20;75.33
65666;BME280;52365;47.464;18.976;2022-12-17T01:08:09;99243.75;;;4.31;75.24
65666;BME280;52365;47.464;18.976;2022-12-17T01:09:04;99247.19;;;4.44;74.55
65666;BME280;52365;47.464;18.976;2022-12-17T01:09:59;99249.59;;;4.67;74.19
65666;BME280;52365;47.464;18.976;2022-12-17T01:11:04;99252.19;;;4.96;72.83
65666;BME280;52365;47.464;18.976;2022-12-17T01:11:59;99256.34;;;5.10;71.68
65666;BME280;52365;47.464;18.976;2022-12-17T01:12:53;99262.63;;;5.16;71.23
65666;BME280;52365;47.464;18.976;2022-12-17T01:13:48;99266.16;;;5.13;71.09
65666;BME280;52365;47.464;18.976;2022-12-17T01:14:43;99278.56;;;5.33;70.72
65666;BME280;52365;47.464;18.976;2022-12-17T01:15:37;99283.25;;;5.28;70.30
65666;BME280;52365;47.464;18.976;2022-12-17T01:16:32;99277.91;;;5.16;70.43
65666;BME280;52365;47.464;18.976;2022-12-17T01:17:27;99274.81;;;5.04;70.90
65666;BME280;52365;47.464;18.976;2022-12-17T01:18:21;99273.53;;;4.96;71.28
65666;BME280;52365;47.464;18.976;2022-12-17T01:19:16;99272.03;;;5.08;71.18
65666;BME280;52365;47.464;18.976;2022-12-17T01:20:10;99278.56;;;5.07;70.95
65666;BME280;52365;47.464;18.976;2022-12-17T01:21:05;99274.28;;;4.97;71.11
65666;BME280;52365;47.464;18.976;2022-12-17T01:22:00;99273.66;;;5.05;71.19
65666;BME280;52365;47.464;18.976;2022-12-17T01:22:54;99279.94;;;4.99;71.26
65666;BME280;52365;47.464;18.976;2022-12-17T01:23:49;99276.94;;;4.84;71.53
65666;BME280;52365;47.464;18.976;2022-12-17T01:24:44;99277.50;;;4.92;71.82
65666;BME280;52365;47.464;18.976;2022-12-17T01:25:39;99283.59;;;5.05;71.54
65666;BME280;52365;47.464;18.976;2022-12-17T01:26:33;99276.53;;;4.98;71.44
65666;BME280;52365;47.464;18.976;2022-12-17T01:27:28;99290.81;;;5.04;71.22
65666;BME280;52365;47.464;18.976;2022-12-17T01:28:23;99282.06;;;4.91;71.28
65666;BME280;52365;47.464;18.976;2022-12-17T01:29:18;99286.25;;;4.92;71.51
65666;BME280;52365;47.464;18.976;2022-12-17T01:30:13;99287.00;;;5.05;71.35
65666;BME280;52365;47.464;18.976;2022-12-17T01:31:08;99291.91;;;5.07;71.21
65666;BME280;52365;47.464;18.976;2022-12-17T01:32:03;99290.31;;;5.22;71.01
65666;BME280;52365;47.464;18.976;2022-12-17T01:33:03;99294.69;;;5.16;70.47
65666;BME280;52365;47.464;18.976;2022-12-17T01:33:57;99290.84;;;5.17;69.99
65666;BME280;52365;47.464;18.976;2022-12-17T01:34:52;99299.47;;;4.83;69.86
65666;BME280;52365;47.464;18.976;2022-12-17T01:35:46;99298.31;;;4.84;70.08
65666;BME280;52365;47.464;18.976;2022-12-17T01:36:41;99308.22;;;4.84;69.69
65666;BME280;52365;47.464;18.976;2022-12-17T01:37:36;99301.38;;;4.83;69.70
65666;BME280;52365;47.464;18.976;2022-12-17T01:38:31;99306.94;;;4.75;69.57
65666;BME280;52365;47.464;18.976;2022-12-17T01:39:26;99301.06;;;4.39;70.30
65666;BME280;52365;47.464;18.976;2022-12-17T01:40:20;99303.41;;;4.37;70.45
65666;BME280;52365;47.464;18.976;2022-12-17T01:41:19;99304.50;;;4.52;70.38
65666;BME280;52365;47.464;18.976;2022-12-17T01:42:13;99298.53;;;4.48;70.05
65666;BME280;52365;47.464;18.976;2022-12-17T01:43:10;99306.41;;;4.10;71.42
65666;BME280;52365;47.464;18.976;2022-12-17T01:45:40;99291.13;;;4.10;70.72
65666;BME280;52365;47.464;18.976;2022-12-17T01:46:40;99283.34;;;3.21;73.27
65666;BME280;52365;47.464;18.976;2022-12-17T01:48:40;99285.69;;;3.85;73.04
65666;BME280;52365;47.464;18.976;2022-12-17T01:49:36;99285.69;;;3.19;73.60
65666;BME280;52365;47.464;18.976;2022-12-17T01:50:34;99288.53;;;3.61;73.71
65666;BME280;52365;47.464;18.976;2022-12-17T01:51:30;99293.16;;;3.90;72.96
65666;BME280;52365;47.464;18.976;2022-12-17T01:52:25;99297.44;;;3.87;72.36
65666;BME280;52365;47.464;18.976;2022-12-17T01:53:23;99299.00;;;4.01;71.98
65666;BME280;52365;47.464;18.976;2022-12-17T01:54:19;99297.34;;;3.91;71.73
65666;BME280;52365;47.464;18.976;2022-12-17T01:55:14;99288.66;;;4.03;71.55
65666;BME280;52365;47.464;18.976;2022-12-17T01:56:09;99289.19;;;4.27;70.90
65666;BME280;52365;47.464;18.976;2022-12-17T01:57:05;99290.72;;;4.12;70.73
65666;BME280;52365;47.464;18.976;2022-12-17T01:58:01;99290.44;;;4.22;70.92
65666;BME280;52365;47.464;18.976;2022-12-17T01:58:57;99283.94;;;4.23;70.76
65666;BME280;52365;47.464;18.976;2022-12-17T02:00:02;99292.31;;;4.09;71.06
65666;BME280;52365;47.464;18.976;2022-12-17T02:00:58;99298.34;;;3.97;71.13
65666;BME280;52365;47.464;18.976;2022-12-17T02:01:53;99300.50;;;4.02;71.48
65666;BME280;52365;47.464;18.976;2022-12-17T02:02:47;99307.00;;;4.01;71.53
65666;BME280;52365;47.464;18.976;2022-12-17T02:03:42;99309.84;;;3.77;72.36
65666;BME280;52365;47.464;18.976;2022-12-17T02:04:37;99302.25;;;3.92;72.10
65666;BME280;52365;47.464;18.976;2022-12-17T02:05:42;99302.16;;;3.96;71.98
65666;BME280;52365;47.464;18.976;2022-12-17T02:06:45;99300.47;;;4.18;71.31
65666;BME280;52365;47.464;18.976;2022-12-17T02:08:11;99295.28;;;3.49;72.67
65666;BME280;52365;47.464;18.976;2022-12-17T02:10:24;99299.94;;;4.23;71.60
65666;BME280;52365;47.464;18.976;2022-12-17T02:11:34;99307.09;;;4.26;71.21
65666;BME280;52365;47.464;18.976;2022-12-17T02:12:44;99305.16;;;3.98;71.38
65666;BME280;52365;47.464;18.976;2022-12-17T02:13:51;99305.66;;;4.09;71.80
65666;BME280;52365;47.464;18.976;2022-12-17T02:14:59;99304.41;;;3.97;72.30
65666;BME280;52365;47.464;18.976;2022-12-17T02:16:04;99306.66;;;3.99;73.05
65666;BME280;52365;47.464;18.976;2022-12-17T02:17:01;99306.31;;;4.13;72.74
65666;BME280;52365;47.464;18.976;2022-12-17T02:18:02;99308.75;;;4.37;72.25
65666;BME280;52365;47.464;18.976;2022-12-17T02:19:48;99302.63;;;3.78;72.30
65666;BME280;52365;47.464;18.976;2022-12-17T02:20:37;99301.13;;;3.61;73.30
65666;BME280;52365;47.464;18.976;2022-12-17T02:21:34;99306.19;;;3.55;74.92
65666;BME280;52365;47.464;18.976;2022-12-17T02:23:51;99297.13;;;4.14;72.61
65666;BME280;52365;47.464;18.976;2022-12-17T02:24:59;99294.78;;;4.16;71.71
65666;BME280;52365;47.464;18.976;2022-12-17T02:26:26;99291.87;;;3.65;74.21
65666;BME280;52365;47.464;18.976;2022-12-17T02:27:23;99291.28;;;4.19;72.47
65666;BME280;52365;47.464;18.976;2022-12-17T02:28:19;99283.38;;;4.45;71.40
65666;BME280;52365;47.464;18.976;2022-12-17T02:29:14;99287.00;;;4.51;70.91
65666;BME280;52365;47.464;18.976;2022-12-17T02:30:10;99282.59;;;4.32;71.08
65666;BME280;52365;47.464;18.976;2022-12-17T02:31:06;99278.06;;;3.99;72.33
65666;BME280;52365;47.464;18.976;2022-12-17T02:32:02;99283.59;;;4.21;72.20
65666;BME280;52365;47.464;18.976;2022-12-17T02:32:59;99270.44;;;4.31;71.94
65666;BME280;52365;47.464;18.976;2022-12-17T02:33:54;99275.31;;;4.32;71.35
65666;BME280;52365;47.464;18.976;2022-12-17T02:34:50;99270.56;;;4.40;70.93
65666;BME280;52365;47.464;18.976;2022-12-17T02:35:52;99278.16;;;4.54;70.68
65666;BME280;52365;47.464;18.976;2022-12-17T02:36:47;99272.41;;;4.55;70.14
65666;BME280;52365;47.464;18.976;2022-12-17T02:37:49;99278.38;;;4.60;70.17
65666;BME280;52365;47.464;18.976;2022-12-17T02:38:43;99277.13;;;4.64;69.69
65666;BME280;52365;47.464;18.976;2022-12-17T02:39:37;99282.38;;;4.39;70.29
65666;BME280;52365;47.464;18.976;2022-12-17T02:40:33;99290.84;;;3.92;72.25
65666;BME280;52365;47.464;18.976;2022-12-17T02:41:36;99301.25;;;4.32;72.34
65666;BME280;52365;47.464;18.976;2022-12-17T02:42:32;99296.69;;;3.70;73.06
65666;BME280;52365;47.464;18.976;2022-12-17T02:43:27;99296.25;;;3.88;73.55
65666;BME280;52365;47.464;18.976;2022-12-17T02:44:23;99299.91;;;3.94;73.34
65666;BME280;52365;47.464;18.976;2022-12-17T02:45:19;99300.91;;;4.29;72.55
65666;BME280;52365;47.464;18.976;2022-12-17T02:46:14;99309.13;;;4.64;71.25
65666;BME280;52365;47.464;18.976;2022-12-17T02:47:10;99304.72;;;4.45;70.48
65666;BME280;52365;47.464;18.976;2022-12-17T02:48:05;99308.69;;;3.78;71.31
65666;BME280;52365;47.464;18.976;2022-12-17T02:49:01;99312.19;;;3.92;72.53
65666;BME280;52365;47.464;18.976;2022-12-17T02:49:57;99315.66;;;3.72;72.87
65666;BME280;52365;47.464;18.976;2022-12-17T02:50:51;99317.94;;;3.74;73.42
65666;BME280;52365;47.464;18.976;2022-12-17T02:51:46;99319.34;;;4.24;72.58
65666;BME280;52365;47.464;18.976;2022-12-17T02:52:45;99322.16;;;4.33;72.08
65666;BME280;52365;47.464;18.976;2022-12-17T02:53:43;99320.31;;;4.17;71.46
65666;BME280;52365;47.464;18.976;2022-12-17T02:54:37;99324.47;;;4.18;71.60
65666;BME280;52365;47.464;18.976;2022-12-17T02:55:33;99331.28;;;4.19;71.91
65666;BME280;52365;47.464;18.976;2022-12-17T02:56:28;99327.41;;;3.75;72.92
65666;BME280;52365;47.464;18.976;2022-12-17T02:57:23;99326.28;;;3.23;74.29
65666;BME280;52365;47.464;18.976;2022-12-17T02:58:17;99321.44;;;3.71;74.26
65666;BME280;52365;47.464;18.976;2022-12-17T02:59:12;99335.16;;;4.02;73.43
65666;BME280;52365;47.464;18.976;2022-12-17T03:00:07;99327.81;;;4.06;73.15
65666;BME280;52365;47.464;18.976;2022-12-17T03:01:02;99345.75;;;3.89;73.37
65666;BME280;52365;47.464;18.976;2022-12-17T03:01:56;99335.38;;;4.08;73.38
65666;BME280;52365;47.464;18.976;2022-12-17T03:02:51;99343.59;;;4.29;72.48
65666;BME280;52365;47.464;18.976;2022-12-17T03:03:45;99343.16;;;4.02;72.52
65666;BME280;52365;47.464;18.976;2022-12-17T03:04:40;99343.97;;;3.99;72.78
65666;BME280;52365;47.464;18.976;2022-12-17T03:05:34;99352.53;;;4.39;71.95
65666;BME280;52365;47.464;18.976;2022-12-17T03:06:29;99355.41;;;4.45;71.06
65666;BME280;52365;47.464;18.976;2022-12-17T03:07:24;99362.06;;;4.53;70.63
65666;BME280;52365;47.464;18.976;2022-12-17T03:08:18;99357.97;;;4.19;71.70
65666;BME280;52365;47.464;18.976;2022-12-17T03:09:13;99360.72;;;4.61;71.01
65666;BME280;52365;47.464;18.976;2022-12-17T03:10:08;99367.72;;;4.55;70.30
65666;BME280;52365;47.464;18.976;2022-12-17T03:11:02;99371.88;;;4.56;69.68
65666;BME280;52365;47.464;18.976;2022-12-17T03:11:57;99370.25;;;4.46;69.71
65666;BME280;52365;47.464;18.976;2022-12-17T03:12:52;99373.34;;;4.44;69.91
65666;BME280;52365;47.464;18.976;2022-12-17T03:13:46;99362.25;;;4.46;69.30
65666;BME280;52365;47.464;18.976;2022-12-17T03:14:41;99367.72;;;4.55;69.33
65666;BME280;52365;47.464;18.976;2022-12-17T03:15:36;99367.25;;;4.44;69.62
65666;BME280;52365;47.464;18.976;2022-12-17T03:16:30;99373.06;;;4.26;69.40
65666;BME280;52365;47.464;18.976;2022-12-17T03:17:25;99370.63;;;4.32;69.18
65666;BME280;52365;47.464;18.976;2022-12-17T03:18:20;99364.47;;;4.47;68.64
65666;BME280;52365;47.464;18.976;2022-12-17T03:19:14;99366.66;;;4.52;68.56
65666;BME280;52365;47.464;18.976;2022-12-17T03:20:09;99360.41;;;4.43;68.43
65666;BME280;52365;47.464;18.976;2022-12-17T03:21:04;99354.94;;;4.34;68.27
65666;BME280;52365;47.464;18.976;2022-12-17T03:21:58;99358.00;;;4.48;68.28
65666;BME280;52365;47.464;18.976;2022-12-17T03:23:00;99362.91;;;4.50;68.25
65666;BME280;52365;47.464;18.976;2022-12-17T03:23:55;99363.97;;;4.07;68.56
65666;BME280;52365;47.464;18.976;2022-12-17T03:24:49;99362.03;;;3.42;70.36
65666;BME280;52365;47.464;18.976;2022-12-17T03:25:44;99362.16;;;3.71;71.51
65666;BME280;52365;47.464;18.976;2022-12-17T03:26:38;99369.72;;;4.06;70.72
65666;BME280;52365;47.464;18.976;2022-12-17T03:27:33;99360.72;;;4.16;69.97
65666;BME280;52365;47.464;18.976;2022-12-17T03:28:28;99368.41;;;4.43;69.06
65666;BME280;52365;47.464;18.976;2022-12-17T03:29:22;99370.28;;;4.29;68.74
65666;BME280;52365;47.464;18.976;2022-12-17T03:30:16;99361.59;;;4.25;68.68
65666;BME280;52365;47.464;18.976;2022-12-17T03:31:11;99363.72;;;4.01;68.68
65666;BME280;52365;47.464;18.976;2022-12-17T03:32:06;99356.25;;;3.96;69.42
65666;BME280;52365;47.464;18.976;2022-12-17T03:33:00;99373.22;;;4.19;69.15
65666;BME280;52365;47.464;18.976;2022-12-17T03:33:55;99373.91;;;3.21;70.37
65666;BME280;52365;47.464;18.976;2022-12-17T03:34:49;99370.78;;;3.43;71.12
65666;BME280;52365;47.464;18.976;2022-12-17T03:35:44;99374.19;;;3.43;71.78
65666;BME280;52365;47.464;18.976;2022-12-17T03:36:38;99374.47;;;3.65;71.22
65666;BME280;52365;47.464;18.976;2022-12-17T03:37:33;99365.31;;;3.66;70.42
65666;BME280;52365;47.464;18.976;2022-12-17T03:38:27;99370.63;;;2.94;71.05
65666;BME280;52365;47.464;18.976;2022-12-17T03:39:22;99377.47;;;2.95;72.00
65666;BME280;52365;47.464;18.976;2022-12-17T03:40:16;99368.44;;;2.89;72.60
65666;BME280;52365;47.464;18.976;2022-12-17T03:41:11;99371.03;;;3.12;72.41
65666;BME280;52365;47.464;18.976;2022-12-17T03:42:06;99370.66;;;2.74;72.39
65666;BME280;52365;47.464;18.976;2022-12-17T03:43:10;99384.22;;;2.99;72.32
65666;BME280;52365;47.464;18.976;2022-12-17T03:44:05;99378.00;;;2.66;72.71
65666;BME280;52365;47.464;18.976;2022-12-17T03:45:00;99373.19;;;2.81;73.73
65666;BME280;52365;47.464;18.976;2022-12-17T03:45:56;99370.06;;;3.22;72.99
65666;BME280;52365;47.464;18.976;2022-12-17T03:46:51;99366.81;;;2.95;72.28
65666;BME280;52365;47.464;18.976;2022-12-17T03:47:45;99370.75;;;2.47;73.18
65666;BME280;52365;47.464;18.976;2022-12-17T03:48:40;99376.47;;;1.48;75.70
65666;BME280;52365;47.464;18.976;2022-12-17T03:49:34;99389.31;;;2.27;75.30
65666;BME280;52365;47.464;18.976;2022-12-17T03:50:29;99375.50;;;2.36;75.09
65666;BME280;52365;47.464;18.976;2022-12-17T03:51:24;99380.16;;;3.11;73.48
65666;BME280;52365;47.464;18.976;2022-12-17T03:52:19;99385.38;;;2.98;72.38
65666;BME280;52365;47.464;18.976;2022-12-17T03:53:13;99379.59;;;3.03;72.39
65666;BME280;52365;47.464;18.976;2022-12-17T03:54:08;99375.41;;;2.83;72.70
65666;BME280;52365;47.464;18.976;2022-12-17T03:55:03;99366.53;;;3.09;71.72
65666;BME280;52365;47.464;18.976;2022-12-17T03:55:58;99368.66;;;2.98;71.59
65666;BME280;52365;47.464;18.976;2022-12-17T03:56:53;99371.47;;;2.04;72.32
65666;BME280;52365;47.464;18.976;2022-12-17T03:57:48;99361.50;;;1.61;76.05
65666;BME280;52365;47.464;18.976;2022-12-17T03:58:42;99361.63;;;2.48;75.62
65666;BME280;52365;47.464;18.976;2022-12-17T03:59:37;99364.91;;;2.95;73.56
65666;BME280;52365;47.464;18.976;2022-12-17T04:00:31;99365.00;;;3.28;71.97
65666;BME280;52365;47.464;18.976;2022-12-17T04:01:26;99370.94;;;3.36;70.75
65666;BME280;52365;47.464;18.976;2022-12-17T04:02:21;99375.16;;;3.33;69.98
65666;BME280;52365;47.464;18.976;2022-12-17T04:03:16;99373.72;;;2.92;71.11
65666;BME280;52365;47.464;18.976;2022-12-17T04:04:10;99378.34;;;2.88;71.52
65666;BME280;52365;47.464;18.976;2022-12-17T04:05:05;99372.47;;;2.97;71.22
65666;BME280;52365;47.464;18.976;2022-12-17T04:06:00;99370.06;;;2.19;72.58
65666;BME280;52365;47.464;18.976;2022-12-17T04:06:54;99379.66;;;2.37;72.70
65666;BME280;52365;47.464;18.976;2022-12-17T04:07:48;99379.38;;;2.31;72.25
65666;BME280;52365;47.464;18.976;2022-12-17T04:08:43;99372.00;;;2.82;71.63
65666;BME280;52365;47.464;18.976;2022-12-17T04:09:37;99376.50;;;2.85;71.40
65666;BME280;52365;47.464;18.976;2022-12-17T04:10:32;99383.37;;;3.02;70.65
65666;BME280;52365;47.464;18.976;2022-12-17T04:11:27;99384.97;;;3.00;70.51
65666;BME280;52365;47.464;18.976;2022-12-17T04:12:21;99372.75;;;3.02;70.03
65666;BME280;52365;47.464;18.976;2022-12-17T04:13:16;99378.34;;;3.08;69.79
65666;BME280;52365;47.464;18.976;2022-12-17T04:14:11;99377.13;;;2.93;69.99
65666;BME280;52365;47.464;18.976;2022-12-17T04:15:05;99373.34;;;3.10;69.93
65666;BME280;52365;47.464;18.976;2022-12-17T04:16:00;99371.19;;;3.05;69.52
65666;BME280;52365;47.464;18.976;2022-12-17T04:16:55;99368.41;;;3.28;68.86
65666;BME280;52365;47.464;18.976;2022-12-17T04:17:49;99372.59;;;3.10;68.96
65666;BME280;52365;47.464;18.976;2022-12-17T04:18:43;99377.00;;;3.00;69.35
65666;BME280;52365;47.464;18.976;2022-12-17T04:19:38;99365.56;;;3.19;69.20
65666;BME280;52365;47.464;18.976;2022-12-17T04:20:33;99370.38;;;3.08;68.88
65666;BME280;52365;47.464;18.976;2022-12-17T04:21:28;99369.66;;;3.24;68.65
65666;BME280;52365;47.464;18.976;2022-12-17T04:22:22;99365.97;;;3.18;68.53
65666;BME280;52365;47.464;18.976;2022-12-17T04:23:17;99366.47;;;2.93;68.73
65666;BME280;52365;47.464;18.976;2022-12-17T04:24:12;99356.22;;;3.11;68.82
65666;BME280;52365;47.464;18.976;2022-12-17T04:25:06;99367.22;;;3.13;68.67
65666;BME280;52365;47.464;18.976;2022-12-17T04:26:15;99363.38;;;3.34;68.30
65666;BME280;52365;47.464;18.976;2022-12-17T04:27:10;99364.75;;;3.22;67.74
65666;BME280;52365;47.464;18.976;2022-12-17T04:28:04;99354.72;;;3.10;68.11
65666;BME280;52365;47.464;18.976;2022-12-17T04:28:58;99355.28;;;2.62;68.15
65666;BME280;52365;47.464;18.976;2022-12-17T04:29:53;99357.28;;;2.77;69.06
65666;BME280;52365;47.464;18.976;2022-12-17T04:30:47;99369.28;;;2.86;68.82
65666;BME280;52365;47.464;18.976;2022-12-17T04:31:42;99372.84;;;2.36;68.93
65666;BME280;52365;47.464;18.976;2022-12-17T04:32:36;99368.53;;;2.65;69.82
65666;BME280;52365;47.464;18.976;2022-12-17T04:33:31;99376.78;;;2.91;69.04
65666;BME280;52365;47.464;18.976;2022-12-17T04:34:26;99383.66;;;2.88;68.54
65666;BME280;52365;47.464;18.976;2022-12-17T04:35:20;99388.66;;;3.06;68.16
65666;BME280;52365;47.464;18.976;2022-12-17T04:36:15;99396.34;;;3.20;67.54
65666;BME280;52365;47.464;18.976;2022-12-17T04:37:10;99399.28;;;3.06;67.64
65666;BME280;52365;47.464;18.976;2022-12-17T04:38:05;99401.81;;;3.13;67.46
65666;BME280;52365;47.464;18.976;2022-12-17T04:39:00;99402.94;;;2.96;67.33
65666;BME280;52365;47.464;18.976;2022-12-17T04:39:54;99412.19;;;2.88;67.70
65666;BME280;52365;47.464;18.976;2022-12-17T04:40:48;99410.81;;;3.19;67.53
65666;BME280;52365;47.464;18.976;2022-12-17T04:41:43;99412.97;;;3.08;67.43
65666;BME280;52365;47.464;18.976;2022-12-17T04:42:37;99419.78;;;3.09;67.30
65666;BME280;52365;47.464;18.976;2022-12-17T04:43:32;99419.38;;;2.91;67.35
65666;BME280;52365;47.464;18.976;2022-12-17T04:44:27;99415.13;;;2.93;67.40
65666;BME280;52365;47.464;18.976;2022-12-17T04:45:21;99410.09;;;2.99;67.46
65666;BME280;52365;47.464;18.976;2022-12-17T04:46:16;99400.50;;;2.62;67.92
65666;BME280;52365;47.464;18.976;2022-12-17T04:47:10;99408.00;;;2.67;67.87
65666;BME280;52365;47.464;18.976;2022-12-17T04:48:06;99409.94;;;2.66;68.03
65666;BME280;52365;47.464;18.976;2022-12-17T04:49:01;99405.34;;;2.67;67.92
65666;BME280;52365;47.464;18.976;2022-12-17T04:49:55;99410.62;;;2.70;67.77
65666;BME280;52365;47.464;18.976;2022-12-17T04:50:51;99409.28;;;2.59;67.58
65666;BME280;52365;47.464;18.976;2022-12-17T04:51:45;99424.13;;;2.80;67.62
65666;BME280;52365;47.464;18.976;2022-12-17T04:52:40;99428.22;;;2.84;67.18
65666;BME280;52365;47.464;18.976;2022-12-17T04:53:34;99424.66;;;2.71;67.41
65666;BME280;52365;47.464;18.976;2022-12-17T04:54:29;99426.41;;;1.30;70.18
65666;BME280;52365;47.464;18.976;2022-12-17T04:55:23;99421.19;;;1.80;70.83
65666;BME280;52365;47.464;18.976;2022-12-17T04:56:19;99432.84;;;2.37;69.94
65666;BME280;52365;47.464;18.976;2022-12-17T04:57:18;99428.16;;;2.44;68.86
65666;BME280;52365;47.464;18.976;2022-12-17T04:58:12;99418.41;;;2.38;68.92
65666;BME280;52365;47.464;18.976;2022-12-17T04:59:07;99425.03;;;1.75;69.76
65666;BME280;52365;47.464;18.976;2022-12-17T05:00:02;99435.41;;;2.20;69.84
65666;BME280;52365;47.464;18.976;2022-12-17T05:00:57;99444.87;;;2.21;69.37
65666;BME280;52365;47.464;18.976;2022-12-17T05:01:51;99431.63;;;1.94;69.75
65666;BME280;52365;47.464;18.976;2022-12-17T05:02:46;99442.78;;;1.55;69.92